createdAt,value
2023-01-06T00:01:18.126Z,99090.06
2023-01-06T00:03:49.636Z,99084.81
2023-01-06T00:06:16.089Z,99083.94
2023-01-06T00:08:48.881Z,99073.38
2023-01-06T00:11:15.839Z,99052.31
2023-01-06T00:13:42.396Z,99067.31
2023-01-06T00:16:12.247Z,99075.22
2023-01-06T00:18:39.312Z,99076.97
2023-01-06T00:21:06.602Z,99068.13
2023-01-06T00:23:34.049Z,99066.41
2023-01-06T00:26:04.454Z,99059.38
2023-01-06T00:28:31.110Z,99054.13
2023-01-06T00:30:57.764Z,99057.63
2023-01-06T00:33:24.895Z,99056.75
2023-01-06T00:35:51.764Z,99060.28
2023-01-06T00:38:22.182Z,99059.38
2023-01-06T00:40:48.623Z,99054.94
2023-01-06T00:43:20.989Z,99045.31
2023-01-06T00:45:47.436Z,99045.31
2023-01-06T00:48:14.103Z,99040.94
2023-01-06T00:50:40.606Z,99046.22
2023-01-06T00:53:07.698Z,99047.13
2023-01-06T00:55:37.130Z,99043.59
2023-01-06T00:58:03.616Z,99041.91
2023-01-06T01:00:30.088Z,99034.88
2023-01-06T01:02:56.674Z,99041.94
2023-01-06T01:05:23.201Z,99033.13
2023-01-06T01:07:49.719Z,99034.03
2023-01-06T01:10:16.321Z,99030.50
2023-01-06T01:12:42.839Z,99036.66
2023-01-06T01:15:09.811Z,99029.63
2023-01-06T01:17:36.288Z,99033.13
2023-01-06T01:20:02.868Z,99026.97
2023-01-06T01:22:30.729Z,99036.66
2023-01-06T01:24:57.344Z,99034.91
2023-01-06T01:27:26.625Z,99038.44
2023-01-06T01:29:53.164Z,99030.50
2023-01-06T01:32:20.048Z,99038.41
2023-01-06T01:34:49.845Z,99027.84
2023-01-06T01:37:16.330Z,99031.34
2023-01-06T01:39:42.957Z,99032.22
2023-01-06T01:42:17.904Z,99027.81
2023-01-06T01:44:56.249Z,99036.63
2023-01-06T01:47:30.440Z,99046.31
2023-01-06T01:50:07.302Z,99025.19
2023-01-06T01:52:34.891Z,99022.56
2023-01-06T01:55:02.815Z,99023.44
2023-01-06T01:57:45.709Z,99035.78
2023-01-06T02:00:12.539Z,99028.75
2023-01-06T02:02:39.839Z,99027.88
2023-01-06T02:05:07.866Z,99027.88
2023-01-06T02:07:34.405Z,99020.88
2023-01-06T02:10:12.962Z,99021.72
2023-01-06T02:12:41.242Z,99026.13
2023-01-06T02:15:26.445Z,99020.84
2023-01-06T02:18:07.998Z,99024.34
2023-01-06T02:20:50.051Z,99021.72
2023-01-06T02:23:47.122Z,99013.88
2023-01-06T02:26:13.558Z,99017.38
2023-01-06T02:29:25.041Z,99012.13
2023-01-06T02:32:10.113Z,99012.13
2023-01-06T02:34:55.727Z,99004.22
2023-01-06T02:37:47.798Z,99010.44
2023-01-06T02:40:45.322Z,99013.94
2023-01-06T02:43:26.412Z,99009.53
2023-01-06T02:45:57.739Z,99010.44
2023-01-06T02:48:50.410Z,99011.31
2023-01-06T02:51:24.523Z,99005.16
2023-01-06T02:54:17.216Z,98999.88
2023-01-06T02:56:54.621Z,98999.88
2023-01-06T02:59:29.775Z,98992.84
2023-01-06T03:01:59.341Z,98985.78
2023-01-06T03:04:31.688Z,98980.50
2023-01-06T03:07:02.376Z,98980.50
2023-01-06T03:09:33.580Z,98976.97
2023-01-06T03:12:06.669Z,98981.38
2023-01-06T03:14:38.737Z,98977.88
2023-01-06T03:17:05.380Z,98969.06
2023-01-06T03:19:32.400Z,98968.19
2023-01-06T03:22:00.554Z,98963.75
2023-01-06T03:24:27.339Z,98972.53
2023-01-06T03:26:54.004Z,98968.13
2023-01-06T03:29:22.181Z,98972.53
2023-01-06T03:32:01.821Z,98969.88
2023-01-06T03:34:50.053Z,98969.00
2023-01-06T03:37:40.478Z,98962.84
2023-01-06T03:40:19.225Z,98955.78
2023-01-06T03:43:16.321Z,98947.00
2023-01-06T03:46:01.188Z,98951.38
2023-01-06T03:49:02.667Z,98948.72
2023-01-06T03:52:06.489Z,98947.81
2023-01-06T03:54:55.008Z,98946.94
2023-01-06T03:57:33.325Z,98946.06
2023-01-06T04:00:19.096Z,98954.84
2023-01-06T04:02:46.811Z,98947.81
2023-01-06T04:05:14.890Z,98939.91
2023-01-06T04:07:42.371Z,98942.53
2023-01-06T04:10:10.377Z,98934.59
2023-01-06T04:12:39.852Z,98935.50
2023-01-06T04:15:08.559Z,98946.03
2023-01-06T04:17:35.504Z,98939.88
2023-01-06T04:20:02.802Z,98938.13
2023-01-06T04:22:29.340Z,98937.25
2023-01-06T04:24:55.808Z,98929.41
2023-01-06T04:27:22.292Z,98919.75
2023-01-06T04:29:48.796Z,98920.63
2023-01-06T04:32:15.290Z,98912.69
2023-01-06T04:34:41.909Z,98912.69
2023-01-06T04:37:08.382Z,98903.03
2023-01-06T04:39:34.897Z,98898.69
2023-01-06T04:42:01.727Z,98901.31
2023-01-06T04:44:28.251Z,98903.09
2023-01-06T04:46:54.687Z,98885.47
2023-01-06T04:49:21.238Z,98893.41
2023-01-06T04:51:47.728Z,98890.75
2023-01-06T04:54:14.220Z,98881.97
2023-01-06T04:56:40.717Z,98881.97
2023-01-06T04:59:07.224Z,98878.44
2023-01-06T05:01:33.892Z,98876.69
2023-01-06T05:04:00.446Z,98874.94
2023-01-06T05:06:26.980Z,98870.53
2023-01-06T05:08:53.507Z,98878.44
2023-01-06T05:11:22.486Z,98867.00
2023-01-06T05:13:49.609Z,98875.81
2023-01-06T05:16:20.024Z,98874.94
2023-01-06T05:18:46.695Z,98878.47
2023-01-06T05:21:13.276Z,98873.19
2023-01-06T05:23:40.675Z,98870.53
2023-01-06T05:26:07.859Z,98863.53
2023-01-06T05:28:34.869Z,98853.84
2023-01-06T05:31:02.808Z,98854.75
2023-01-06T05:33:29.494Z,98862.66
2023-01-06T05:36:07.817Z,98851.22
2023-01-06T05:38:34.520Z,98845.09
2023-01-06T05:41:01.404Z,98856.53
2023-01-06T05:43:28.304Z,98855.66
2023-01-06T05:45:55.848Z,98863.59
2023-01-06T05:48:27.820Z,98863.59
2023-01-06T05:51:01.254Z,98853.03
2023-01-06T05:53:31.006Z,98861.81
2023-01-06T05:56:02.961Z,98851.25
2023-01-06T05:58:29.529Z,98844.22
2023-01-06T06:00:56.142Z,98846.81
2023-01-06T06:03:22.628Z,98845.94
2023-01-06T06:05:49.126Z,98841.53
2023-01-06T06:08:15.875Z,98845.06
2023-01-06T06:10:42.354Z,98839.78
2023-01-06T06:13:09.200Z,98843.31
2023-01-06T06:15:35.787Z,98831.88
2023-01-06T06:18:03.306Z,98833.66
2023-01-06T06:20:30.391Z,98826.59
2023-01-06T06:22:56.903Z,98820.44
2023-01-06T06:25:23.437Z,98820.44
2023-01-06T06:27:49.944Z,98823.94
2023-01-06T06:30:25.780Z,98820.44
2023-01-06T06:32:52.411Z,98828.38
2023-01-06T06:35:19.032Z,98832.78
2023-01-06T06:37:45.568Z,98833.66
2023-01-06T06:40:12.424Z,98833.66
2023-01-06T06:42:38.930Z,98827.53
2023-01-06T06:45:06.011Z,98823.09
2023-01-06T06:47:32.482Z,98816.97
2023-01-06T06:49:58.962Z,98825.75
2023-01-06T06:52:25.448Z,98817.84
2023-01-06T06:54:51.992Z,98829.28
2023-01-06T06:57:18.477Z,98836.34
2023-01-06T06:59:44.922Z,98845.13
2023-01-06T07:02:11.528Z,98845.13
2023-01-06T07:04:41.645Z,98846.03
2023-01-06T07:07:08.108Z,98830.19
2023-01-06T07:09:34.583Z,98813.44
2023-01-06T07:12:01.109Z,98830.19
2023-01-06T07:14:27.596Z,98825.75
2023-01-06T07:16:54.033Z,98840.75
2023-01-06T07:19:20.583Z,98836.34
2023-01-06T07:21:47.022Z,98831.91
2023-01-06T07:24:16.928Z,98843.34
2023-01-06T07:26:43.403Z,98842.47
2023-01-06T07:29:09.871Z,98838.94
2023-01-06T07:31:36.408Z,98832.78
2023-01-06T07:34:02.945Z,98831.03
2023-01-06T07:36:29.415Z,98827.47
2023-01-06T07:38:55.906Z,98830.13
2023-01-06T07:41:22.370Z,98832.75
2023-01-06T07:43:48.875Z,98823.97
2023-01-06T07:46:15.366Z,98831.03
2023-01-06T07:48:41.868Z,98831.03
2023-01-06T07:51:08.366Z,98822.22
2023-01-06T07:53:35.101Z,98815.19
2023-01-06T07:56:01.660Z,98819.56
2023-01-06T07:58:28.356Z,98809.91
2023-01-06T08:00:54.846Z,98815.19
2023-01-06T08:03:21.448Z,98813.41
2023-01-06T08:05:47.989Z,98813.41
2023-01-06T08:08:14.483Z,98799.34
2023-01-06T08:10:42.164Z,98798.44
2023-01-06T08:13:09.515Z,98799.38
2023-01-06T08:15:37.563Z,98797.59
2023-01-06T08:18:04.343Z,98792.28
2023-01-06T08:20:30.793Z,98791.44
2023-01-06T08:23:01.842Z,98777.34
2023-01-06T08:25:28.359Z,98781.75
2023-01-06T08:27:54.844Z,98786.13
2023-01-06T08:30:21.890Z,98781.75
2023-01-06T08:32:49.489Z,98782.63
2023-01-06T08:35:16.265Z,98791.47
2023-01-06T08:37:43.013Z,98787.94
2023-01-06T08:40:10.996Z,98803.78
2023-01-06T08:42:37.466Z,98791.44
2023-01-06T08:45:05.793Z,98799.38
2023-01-06T08:47:32.221Z,98804.66
2023-01-06T08:49:58.744Z,98806.44
2023-01-06T08:52:25.361Z,98799.38
2023-01-06T08:54:51.893Z,98802.03
2023-01-06T08:57:18.427Z,98807.31
2023-01-06T08:59:44.984Z,98794.97
2023-01-06T09:02:11.703Z,98804.66
2023-01-06T09:04:38.424Z,98799.38
2023-01-06T09:07:04.914Z,98805.53
2023-01-06T09:09:31.360Z,98802.91
2023-01-06T09:11:58.168Z,98809.06
2023-01-06T09:14:24.971Z,98799.38
2023-01-06T09:16:51.668Z,98808.19
2023-01-06T09:19:20.408Z,98817.88
2023-01-06T09:21:47.040Z,98815.22
2023-01-06T09:24:14.840Z,98808.19
2023-01-06T09:26:41.437Z,98787.03
2023-01-06T09:29:07.945Z,98799.38
2023-01-06T09:31:34.597Z,98803.75
2023-01-06T09:34:01.088Z,98813.50
2023-01-06T09:36:27.717Z,98810.84
2023-01-06T09:38:54.230Z,98797.66
2023-01-06T09:41:52.577Z,98804.69
2023-01-06T09:44:24.640Z,98815.28
2023-01-06T09:46:52.244Z,98810.84
2023-01-06T09:49:33.947Z,98803.84
2023-01-06T09:52:04.995Z,98790.63
2023-01-06T09:54:34.972Z,98801.19
2023-01-06T09:57:11.904Z,98783.56
2023-01-06T09:59:56.883Z,98785.31
2023-01-06T10:02:30.003Z,98790.59
2023-01-06T10:04:56.552Z,98794.09
2023-01-06T10:07:35.270Z,98797.66
2023-01-06T10:10:30.646Z,98795.94
2023-01-06T10:13:19.283Z,98784.47
2023-01-06T10:16:03.807Z,98768.56
2023-01-06T10:18:35.110Z,98761.53
2023-01-06T10:21:12.968Z,98762.41
2023-01-06T10:23:39.386Z,98762.44
2023-01-06T10:26:30.234Z,98758.88
2023-01-06T10:29:18.197Z,98765.97
2023-01-06T10:31:47.311Z,98759.78
2023-01-06T10:34:20.973Z,98732.44
2023-01-06T10:36:54.768Z,98754.47
2023-01-06T10:39:25.272Z,98767.72
2023-01-06T10:42:28.516Z,98766.81
2023-01-06T10:44:54.978Z,98743.00
2023-01-06T10:47:29.831Z,98763.28
2023-01-06T10:49:56.879Z,98752.72
2023-01-06T10:52:25.512Z,98754.50
2023-01-06T10:54:55.790Z,98756.25
2023-01-06T10:57:26.882Z,98755.34
2023-01-06T11:00:08.522Z,98762.41
2023-01-06T11:02:35.155Z,98750.09
2023-01-06T11:05:02.491Z,98751.84
2023-01-06T11:07:30.144Z,98746.56
2023-01-06T11:09:57.752Z,98758.91
2023-01-06T11:12:27.162Z,98749.22
2023-01-06T11:15:06.761Z,98764.19
2023-01-06T11:17:33.464Z,98760.59
2023-01-06T11:20:26.662Z,98766.78
2023-01-06T11:22:53.099Z,98764.13
2023-01-06T11:25:19.523Z,98767.66
2023-01-06T11:28:10.197Z,98755.31
2023-01-06T11:30:53.682Z,98761.50
2023-01-06T11:33:24.249Z,98763.25
2023-01-06T11:35:51.439Z,98764.19
2023-01-06T11:38:20.979Z,98765.03
2023-01-06T11:40:49.834Z,98766.81
2023-01-06T11:43:22.351Z,98754.47
2023-01-06T11:45:57.753Z,98757.13
2023-01-06T11:48:36.194Z,98756.25
2023-01-06T11:51:05.401Z,98766.84
2023-01-06T11:53:34.302Z,98753.59
2023-01-06T11:56:06.599Z,98756.22
2023-01-06T11:59:00.280Z,98755.38
2023-01-06T12:01:39.045Z,98751.81
2023-01-06T12:04:14.348Z,98776.53
2023-01-06T12:06:43.185Z,98773.88
2023-01-06T12:09:38.882Z,98785.34
2023-01-06T12:12:09.143Z,98780.00
2023-01-06T12:14:37.810Z,98790.63
2023-01-06T12:17:13.172Z,98774.75
2023-01-06T12:20:00.484Z,98781.78
2023-01-06T12:22:46.909Z,98782.69
2023-01-06T12:25:20.777Z,98788.84
2023-01-06T12:27:47.680Z,98780.03
2023-01-06T12:30:20.970Z,98788.84
2023-01-06T12:32:49.924Z,98788.84
2023-01-06T12:35:25.112Z,98794.13
2023-01-06T12:37:59.365Z,98799.41
2023-01-06T12:41:04.665Z,98805.59
2023-01-06T12:43:37.493Z,98800.28
2023-01-06T12:46:11.275Z,98779.16
2023-01-06T12:48:48.239Z,98797.66
2023-01-06T12:51:25.884Z,98814.41
2023-01-06T12:54:12.249Z,98810.88
2023-01-06T12:56:58.866Z,98808.22
2023-01-06T13:00:06.703Z,98820.56
2023-01-06T13:03:04.316Z,98827.63
2023-01-06T13:05:48.880Z,98827.63
2023-01-06T13:08:39.647Z,98808.22
2023-01-06T13:11:37.124Z,98821.44
2023-01-06T13:14:20.062Z,98818.81
2023-01-06T13:16:57.721Z,98810.00
2023-01-06T13:19:39.359Z,98802.94
2023-01-06T13:22:09.953Z,98795.03
2023-01-06T13:25:03.703Z,98785.31
2023-01-06T13:27:37.444Z,98797.63
2023-01-06T13:30:25.716Z,98807.38
2023-01-06T13:33:13.505Z,98813.53
2023-01-06T13:35:58.059Z,98811.75
2023-01-06T13:38:50.072Z,98817.00
2023-01-06T13:41:20.677Z,98831.09
2023-01-06T13:43:49.288Z,98827.59
2023-01-06T13:46:20.112Z,98832.88
2023-01-06T13:48:52.414Z,98836.38
2023-01-06T13:51:22.887Z,98832.88
2023-01-06T13:53:50.383Z,98847.00
2023-01-06T13:56:16.775Z,98836.38
2023-01-06T13:58:44.842Z,98838.16
2023-01-06T14:01:20.278Z,98834.66
2023-01-06T14:03:49.531Z,98838.19
2023-01-06T14:06:21.955Z,98838.19
2023-01-06T14:08:53.913Z,98837.28
2023-01-06T14:11:30.605Z,98835.53
2023-01-06T14:14:07.825Z,98839.94
2023-01-06T14:16:40.393Z,98841.69
2023-01-06T14:19:15.281Z,98841.69
2023-01-06T14:21:42.628Z,98849.59
2023-01-06T14:24:34.707Z,98854.00
2023-01-06T14:27:04.807Z,98868.09
2023-01-06T14:29:43.441Z,98871.63
2023-01-06T14:32:14.176Z,98868.97
2023-01-06T14:34:54.426Z,98881.34
2023-01-06T14:37:26.469Z,98884.84
2023-01-06T14:39:54.540Z,98876.94
2023-01-06T14:42:29.926Z,98882.22
2023-01-06T14:45:00.390Z,98874.28
2023-01-06T14:47:47.375Z,98883.94
2023-01-06T14:50:41.890Z,98883.06
2023-01-06T14:53:21.488Z,98883.06
2023-01-06T14:55:49.787Z,98878.63
2023-01-06T14:58:29.625Z,98883.91
2023-01-06T15:00:56.482Z,98883.91
2023-01-06T15:03:24.393Z,98880.41
2023-01-06T15:05:51.047Z,98878.63
2023-01-06T15:08:18.964Z,98882.16
2023-01-06T15:10:48.310Z,98880.41
2023-01-06T15:13:24.835Z,98875.13
2023-01-06T15:16:05.903Z,98887.41
2023-01-06T15:18:35.093Z,98884.75
2023-01-06T15:21:03.212Z,98884.75
2023-01-06T15:23:29.798Z,98876.84
2023-01-06T15:25:56.736Z,98883.88
2023-01-06T15:28:33.966Z,98889.16
2023-01-06T15:31:04.240Z,98901.47
2023-01-06T15:33:38.554Z,98905.84
2023-01-06T15:36:06.539Z,98900.56
2023-01-06T15:38:35.076Z,98891.75
2023-01-06T15:41:04.523Z,98901.44
2023-01-06T15:43:45.819Z,98899.69
2023-01-06T15:46:13.027Z,98900.50
2023-01-06T15:48:48.921Z,98913.72
2023-01-06T15:51:17.567Z,98911.06
2023-01-06T15:53:45.838Z,98907.56
2023-01-06T15:56:24.667Z,98910.19
2023-01-06T15:58:53.560Z,98916.34
2023-01-06T16:01:23.997Z,98919.00
2023-01-06T16:03:55.954Z,98917.22
2023-01-06T16:06:31.462Z,98922.50
2023-01-06T16:09:27.360Z,98924.28
2023-01-06T16:11:58.382Z,98923.44
2023-01-06T16:14:36.773Z,98927.81
2023-01-06T16:17:10.703Z,98930.44
2023-01-06T16:19:49.366Z,98926.03
2023-01-06T16:22:47.979Z,98924.28
2023-01-06T16:25:29.019Z,98915.47
2023-01-06T16:27:58.633Z,98912.81
2023-01-06T16:30:27.593Z,98918.94
2023-01-06T16:32:56.483Z,98920.75
2023-01-06T16:35:25.697Z,98929.53
2023-01-06T16:37:52.936Z,98940.09
2023-01-06T16:40:22.301Z,98932.19
2023-01-06T16:42:49.789Z,98936.53
2023-01-06T16:45:35.267Z,98940.03
2023-01-06T16:48:01.815Z,98939.16
2023-01-06T16:50:37.030Z,98932.13
2023-01-06T16:53:16.228Z,98947.09
2023-01-06T16:55:46.263Z,98932.13
2023-01-06T16:58:25.280Z,98942.69
2023-01-06T17:00:54.390Z,98945.31
2023-01-06T17:03:28.716Z,98943.56
2023-01-06T17:05:55.546Z,98950.59
2023-01-06T17:08:28.373Z,98941.78
2023-01-06T17:10:55.165Z,98943.50
2023-01-06T17:13:36.975Z,98947.00
2023-01-06T17:16:09.687Z,98954.09
2023-01-06T17:18:46.180Z,98940.03
2023-01-06T17:21:22.338Z,98954.13
2023-01-06T17:23:58.874Z,98955.88
2023-01-06T17:26:27.573Z,98959.38
2023-01-06T17:28:57.007Z,98954.06
2023-01-06T17:31:31.668Z,98958.53
2023-01-06T17:34:09.218Z,98965.56
2023-01-06T17:36:38.472Z,98964.63
2023-01-06T17:39:27.067Z,98966.41
2023-01-06T17:42:11.793Z,98964.69
2023-01-06T17:44:47.157Z,98964.63
2023-01-06T17:47:17.516Z,98957.56
2023-01-06T17:49:47.734Z,98962.84
2023-01-06T17:52:16.899Z,98967.25
2023-01-06T17:55:10.523Z,98967.22
2023-01-06T17:57:40.143Z,98968.13
2023-01-06T18:00:21.933Z,98976.03
2023-01-06T18:03:24.688Z,98979.56
2023-01-06T18:05:59.973Z,98976.91
2023-01-06T18:08:27.346Z,98978.63
2023-01-06T18:11:02.260Z,98981.25
2023-01-06T18:13:36.671Z,98984.75
2023-01-06T18:16:09.425Z,98983.06
2023-01-06T18:18:38.544Z,98982.19
2023-01-06T18:21:16.999Z,98974.22
2023-01-06T18:23:47.604Z,98976.88
2023-01-06T18:26:26.347Z,98982.13
2023-01-06T18:29:01.753Z,98981.25
2023-01-06T18:31:34.505Z,98977.72
2023-01-06T18:34:17.562Z,98981.25
2023-01-06T18:36:46.582Z,98979.47
2023-01-06T18:39:14.329Z,99001.47
2023-01-06T18:41:40.768Z,98987.38
2023-01-06T18:44:18.361Z,98992.59
2023-01-06T18:46:44.904Z,98986.47
2023-01-06T18:49:14.903Z,98985.59
2023-01-06T18:51:42.329Z,98994.41
2023-01-06T18:54:22.955Z,98988.25
2023-01-06T18:56:51.418Z,98995.28
2023-01-06T18:59:21.219Z,99001.41
2023-01-06T19:01:52.661Z,98992.66
2023-01-06T19:04:31.234Z,98988.25
2023-01-06T19:07:24.953Z,98991.78
2023-01-06T19:09:51.466Z,98992.59
2023-01-06T19:12:30.339Z,99005.84
2023-01-06T19:15:01.543Z,98996.13
2023-01-06T19:17:31.091Z,99008.44
2023-01-06T19:20:01.006Z,98997.03
2023-01-06T19:22:36.177Z,98993.47
2023-01-06T19:25:13.242Z,98990.84
2023-01-06T19:27:39.706Z,99002.34
2023-01-06T19:30:24.957Z,99012.91
2023-01-06T19:32:51.417Z,99003.22
2023-01-06T19:35:29.234Z,99012.91
2023-01-06T19:38:09.526Z,99013.81
2023-01-06T19:40:44.715Z,99008.53
2023-01-06T19:43:21.651Z,98996.25
2023-01-06T19:45:48.214Z,98999.78
2023-01-06T19:48:23.637Z,98997.16
2023-01-06T19:50:59.795Z,98996.25
2023-01-06T19:53:42.308Z,98998.84
2023-01-06T19:56:19.351Z,99006.75
2023-01-06T19:58:56.519Z,98998.91
2023-01-06T20:01:23.867Z,98988.34
2023-01-06T20:03:57.174Z,98997.13
2023-01-06T20:06:27.459Z,98988.34
2023-01-06T20:08:54.010Z,98996.25
2023-01-06T20:11:22.429Z,98993.63
2023-01-06T20:13:49.145Z,98990.06
2023-01-06T20:16:16.184Z,98990.94
2023-01-06T20:18:42.691Z,99003.25
2023-01-06T20:21:09.250Z,99008.59
2023-01-06T20:23:35.701Z,99006.81
2023-01-06T20:26:02.202Z,99010.34
2023-01-06T20:28:28.744Z,99010.38
2023-01-06T20:30:55.253Z,99005.09
2023-01-06T20:33:21.786Z,99013.88
2023-01-06T20:35:48.238Z,99011.28
2023-01-06T20:38:14.726Z,99017.41
2023-01-06T20:40:41.197Z,99029.72
2023-01-06T20:43:07.718Z,99024.44
2023-01-06T20:45:34.713Z,99019.13
2023-01-06T20:48:01.639Z,99020.91
2023-01-06T20:50:28.192Z,99015.66
2023-01-06T20:52:55.143Z,99020.94
2023-01-06T20:55:21.653Z,99027.97
2023-01-06T20:57:48.231Z,99029.78
2023-01-06T21:00:15.508Z,99024.50
2023-01-06T21:02:45.641Z,99022.75
2023-01-06T21:05:12.333Z,99028.94
2023-01-06T21:07:42.313Z,99023.63
2023-01-06T21:10:09.107Z,99015.72
2023-01-06T21:12:35.669Z,99017.44
2023-01-06T21:15:02.301Z,99018.34
2023-01-06T21:17:28.919Z,99020.13
2023-01-06T21:19:55.517Z,99027.16
2023-01-06T21:22:22.252Z,99021.88
2023-01-06T21:24:49.000Z,99019.22
2023-01-06T21:27:16.961Z,99020.13
2023-01-06T21:29:44.855Z,99023.63
2023-01-06T21:32:11.475Z,99016.59
2023-01-06T21:34:38.636Z,99017.47
2023-01-06T21:37:05.194Z,99021.88
2023-01-06T21:39:32.541Z,99015.72
2023-01-06T21:42:17.784Z,99025.41
2023-01-06T21:44:44.514Z,99021.88
2023-01-06T21:47:11.442Z,99016.66
2023-01-06T21:49:41.652Z,99014.91
2023-01-06T21:52:11.414Z,99018.44
2023-01-06T21:54:37.871Z,99016.66
2023-01-06T21:57:04.423Z,99003.47
2023-01-06T21:59:31.591Z,99014.03
2023-01-06T22:01:59.083Z,99006.13
2023-01-06T22:04:25.929Z,99009.66
2023-01-06T22:06:55.911Z,99007.06
2023-01-06T22:09:23.532Z,99018.50
2023-01-06T22:11:51.497Z,99029.94
2023-01-06T22:14:18.570Z,99026.41
2023-01-06T22:16:45.802Z,99028.19
2023-01-06T22:19:13.771Z,99015.81
2023-01-06T22:21:43.227Z,99028.09
2023-01-06T22:24:12.308Z,99032.44
2023-01-06T22:26:38.757Z,99026.28
2023-01-06T22:29:07.845Z,99029.72
2023-01-06T22:31:37.348Z,99023.56
2023-01-06T22:34:06.493Z,99022.69
2023-01-06T22:36:32.996Z,99024.38
2023-01-06T22:38:59.500Z,99020.88
2023-01-06T22:41:25.950Z,99011.22
2023-01-06T22:43:52.458Z,99026.16
2023-01-06T22:46:19.035Z,99019.97
2023-01-06T22:48:45.882Z,99025.22
2023-01-06T22:51:12.579Z,99025.28
2023-01-06T22:53:39.205Z,99023.47
2023-01-06T22:56:08.570Z,99022.59
2023-01-06T22:58:37.259Z,99024.34
2023-01-06T23:01:05.993Z,99022.59
2023-01-06T23:03:33.485Z,99022.63
2023-01-06T23:06:06.645Z,99019.13
2023-01-06T23:08:34.716Z,99016.50
2023-01-06T23:11:15.808Z,99007.69
2023-01-06T23:13:44.067Z,99005.94
2023-01-06T23:16:22.747Z,99009.53
2023-01-06T23:18:49.986Z,99014.81
2023-01-06T23:21:22.150Z,99013.06
2023-01-06T23:23:50.151Z,99008.69
2023-01-06T23:26:23.322Z,99013.09
2023-01-06T23:28:51.379Z,99005.22
2023-01-06T23:31:20.897Z,98985.81
2023-01-06T23:33:50.220Z,98974.41
2023-01-06T23:36:18.756Z,98985.88
2023-01-06T23:39:04.607Z,98984.13
2023-01-06T23:41:36.202Z,98981.47
2023-01-06T23:44:03.940Z,98978.84
2023-01-06T23:46:33.612Z,98976.25
2023-01-06T23:49:00.196Z,98969.22
2023-01-06T23:51:30.592Z,98955.13
2023-01-06T23:54:01.974Z,98964.81
2023-01-06T23:56:30.708Z,98961.28
2023-01-06T23:58:59.380Z,98968.34
